Time;durP1;ratioP1;P1;durP2;ratioP2;P2;SDS_P1;SDS_P2;PMS_P1;PMS_P2;Temp;Humidity;BMP_temperature;BMP_pressure;BME280_temperature;BME280_humidity;BME280_pressure;Samples;Min_cycle;Max_cycle;Signal;HPM_P1;HPM_P2
2021/12/19 00:09:30;;;;;;;13.02;4.40;;;8.30;99.90;;;;;;5009321;28;20041;-85
2021/12/19 00:11:57;;;;;;;11.15;5.03;;;7.80;99.90;;;;;;5000182;28;20038;-84
2021/12/19 00:14:23;;;;;;;12.38;5.07;;;7.80;99.90;;;;;;5007282;28;20048;-85
2021/12/19 00:16:54;;;;;;;14.43;5.90;;;7.80;99.90;;;;;;5009611;28;20485;-84
2021/12/19 00:19:20;;;;;;;12.27;5.90;;;7.80;99.90;;;;;;5022305;28;20122;-85
2021/12/19 00:21:46;;;;;;;16.08;5.60;;;7.90;99.90;;;;;;4993790;28;20037;-85
2021/12/19 00:24:13;;;;;;;11.65;5.03;;;8.60;99.90;;;;;;5008146;28;20192;-84
2021/12/19 00:26:39;;;;;;;16.08;5.82;;;7.80;99.90;;;;;;5005411;28;20513;-86
2021/12/19 00:29:06;;;;;;;16.25;4.82;;;7.80;99.90;;;;;;5000104;28;20034;-85
2021/12/19 00:31:35;;;;;;;14.15;5.40;;;7.80;99.90;;;;;;5003942;28;20046;-88
2021/12/19 00:34:01;;;;;;;14.18;5.40;;;7.80;99.90;;;;;;5014468;28;20183;-86
2021/12/19 00:36:28;;;;;;;15.00;5.70;;;8.80;99.90;;;;;;5026993;28;20096;-84
2021/12/19 00:38:57;;;;;;;15.07;5.32;;;7.90;99.90;;;;;;5013322;28;20281;-88
2021/12/19 00:41:25;;;;;;;14.65;6.53;;;7.80;99.90;;;;;;5039116;28;20038;-85
2021/12/19 00:43:57;;;;;;;15.32;5.93;;;7.80;99.90;;;;;;5022470;28;20052;-85
2021/12/19 00:46:25;;;;;;;14.30;6.68;;;7.90;99.90;;;;;;4986662;28;20038;-86
2021/12/19 00:48:53;;;;;;;14.32;6.18;;;7.90;99.90;;;;;;5011116;28;20038;-86
2021/12/19 00:51:24;;;;;;;12.93;5.07;;;7.90;99.90;;;;;;5020476;28;20541;-86
2021/12/19 00:54:01;;;;;;;11.85;5.28;;;7.90;99.90;;;;;;5023956;28;20057;-84
2021/12/19 00:56:27;;;;;;;13.90;5.35;;;7.90;99.90;;;;;;5026892;28;20443;-86
2021/12/19 00:58:53;;;;;;;11.65;5.30;;;7.90;99.90;;;;;;5002690;28;20045;-87
2021/12/19 01:01:25;;;;;;;13.52;4.68;;;7.90;99.90;;;;;;5001866;28;20189;-90
2021/12/19 01:03:50;;;;;;;12.23;3.88;;;7.80;99.90;;;;;;5007209;28;20052;-87
2021/12/19 01:06:23;;;;;;;11.02;4.00;;;7.80;99.90;;;;;;5015006;28;20471;-86
2021/12/19 01:08:51;;;;;;;9.88;3.17;;;;;;;;;;4994115;28;20049;-87
2021/12/19 01:11:19;;;;;;;8.57;3.00;;;7.80;99.90;;;;;;5023714;28;20369;-86
2021/12/19 01:13:45;;;;;;;9.38;2.50;;;7.70;99.90;;;;;;5021033;28;20034;-86
2021/12/19 01:16:11;;;;;;;5.10;1.77;;;7.70;99.90;;;;;;5024495;28;20046;-86
2021/12/19 01:18:37;;;;;;;5.63;1.77;;;8.10;99.90;;;;;;5027730;28;20051;-85
2021/12/19 01:21:30;;;;;;;6.40;1.60;;;7.80;99.90;;;;;;5004485;28;20144;-85
2021/12/19 01:24:05;;;;;;;8.27;1.90;;;7.60;99.90;;;;;;5015898;28;20419;-86
2021/12/19 01:26:31;;;;;;;4.22;1.58;;;7.50;99.90;;;;;;5012950;28;20065;-86
2021/12/19 01:28:57;;;;;;;4.82;1.50;;;7.50;99.90;;;;;;5014618;28;20049;-84
2021/12/19 01:31:23;;;;;;;4.78;1.48;;;7.50;99.90;;;;;;5019785;28;20033;-86
2021/12/19 01:33:49;;;;;;;5.50;1.52;;;7.50;99.90;;;;;;4987375;28;20073;-86
2021/12/19 01:36:15;;;;;;;4.70;1.35;;;7.50;99.90;;;;;;5020815;28;20488;-86
2021/12/19 01:38:41;;;;;;;2.35;1.02;;;7.40;99.90;;;;;;5024681;28;20053;-85
2021/12/19 01:41:07;;;;;;;3.38;1.30;;;7.40;99.90;;;;;;5013739;28;20487;-86
2021/12/19 01:43:35;;;;;;;1.95;0.93;;;7.40;99.90;;;;;;5023807;28;20124;-86
2021/12/19 01:46:02;;;;;;;3.38;0.98;;;7.40;99.90;;;;;;5004007;28;20072;-85
2021/12/19 01:48:28;;;;;;;7.78;1.48;;;8.20;99.90;;;;;;5021217;28;20073;-85
2021/12/19 01:50:54;;;;;;;3.92;1.40;;;7.40;99.90;;;;;;5005397;28;20219;-86
2021/12/19 01:53:20;;;;;;;5.47;1.50;;;7.40;99.90;;;;;;5006446;28;20044;-85
2021/12/19 01:55:47;;;;;;;5.22;1.58;;;7.40;99.90;;;;;;5023938;28;20037;-86
2021/12/19 01:58:14;;;;;;;7.05;1.67;;;8.20;99.90;;;;;;5021334;28;20041;-86
2021/12/19 02:00:44;;;;;;;7.90;1.70;;;7.40;99.90;;;;;;4994828;28;20553;-85
2021/12/19 02:03:11;;;;;;;5.72;1.60;;;7.40;99.90;;;;;;5000395;28;20042;-84
2021/12/19 02:05:37;;;;;;;5.28;1.52;;;;;;;;;;4987037;28;20046;-86
2021/12/19 02:08:05;;;;;;;4.75;1.45;;;7.40;99.90;;;;;;4977439;28;20065;-85
2021/12/19 02:10:34;;;;;;;4.53;1.42;;;7.40;99.90;;;;;;4976046;28;20042;-85
2021/12/19 02:13:01;;;;;;;2.42;1.05;;;6.90;99.90;;;;;;5002179;28;20038;-87
2021/12/19 02:15:29;;;;;;;3.33;1.40;;;7.30;99.90;;;;;;5004160;28;20076;-85
2021/12/19 02:17:58;;;;;;;3.78;1.23;;;7.30;99.90;;;;;;4974469;28;20576;-86
2021/12/19 02:20:26;;;;;;;3.50;1.10;;;7.20;99.90;;;;;;5010985;28;20041;-86
2021/12/19 02:22:52;;;;;;;4.30;1.10;;;7.20;99.90;;;;;;4993115;28;20117;-85
2021/12/19 02:25:18;;;;;;;4.07;1.45;;;;;;;;;;4977987;28;20046;-86
2021/12/19 02:27:45;;;;;;;1.67;0.95;;;7.20;99.90;;;;;;4988055;28;20198;-86
2021/12/19 02:30:12;;;;;;;3.28;1.10;;;7.20;99.90;;;;;;4985760;28;20037;-85
2021/12/19 02:32:40;;;;;;;4.03;0.98;;;7.20;99.90;;;;;;4976749;28;20512;-85
2021/12/19 02:35:11;;;;;;;2.97;0.90;;;7.20;99.90;;;;;;4980301;28;20056;-86
2021/12/19 02:48:12;;;;;;;2.67;1.27;;;7.10;99.90;;;;;;4989941;28;20048;-86
2021/12/19 02:50:47;;;;;;;5.82;1.48;;;7.10;99.90;;;;;;5007389;28;20045;-86
2021/12/19 02:53:13;;;;;;;4.40;1.20;;;7.10;99.90;;;;;;5011411;28;20045;-87
2021/12/19 02:55:40;;;;;;;6.70;1.48;;;7.10;99.90;;;;;;4985434;28;20116;-86
2021/12/19 02:58:06;;;;;;;4.25;1.23;;;7.40;99.90;;;;;;4982471;28;20034;-86
2021/12/19 03:00:32;;;;;;;6.25;1.40;;;7.30;99.90;;;;;;4972550;28;20056;-86
2021/12/19 03:02:58;;;;;;;4.85;1.52;;;6.90;99.90;;;;;;5014222;28;20195;-86
2021/12/19 03:05:24;;;;;;;5.38;1.15;;;7.00;99.90;;;;;;5044034;28;20207;-86
2021/12/19 03:07:52;;;;;;;4.25;1.45;;;6.90;99.90;;;;;;5029152;28;20531;-87
2021/12/19 03:18:32;;;;;;;8.57;2.10;;;6.90;99.90;;;;;;5043627;28;20488;-86
2021/12/19 03:20:58;;;;;;;7.55;2.00;;;8.40;99.90;;;;;;5006138;28;20041;-85
2021/12/19 03:23:24;;;;;;;9.50;2.50;;;6.90;99.90;;;;;;5029864;28;20475;-86
2021/12/19 03:25:49;;;;;;;10.60;2.17;;;6.90;99.90;;;;;;5006590;28;20042;-85
2021/12/19 03:28:16;;;;;;;7.93;2.33;;;7.00;99.90;;;;;;5009628;28;20037;-85
2021/12/19 03:30:44;;;;;;;8.13;1.80;;;8.20;99.90;;;;;;5025096;28;20491;-86
2021/12/19 03:33:11;;;;;;;7.50;1.95;;;7.00;99.90;;;;;;5031275;28;20029;-86
2021/12/19 03:35:37;;;;;;;9.55;2.30;;;6.20;99.90;;;;;;5025127;28;20064;-86
2021/12/19 03:38:07;;;;;;;9.05;2.10;;;7.00;99.90;;;;;;4997585;28;20033;-87
2021/12/19 03:40:39;;;;;;;7.18;1.90;;;8.60;99.90;;;;;;5017527;28;20048;-86
2021/12/19 03:43:16;;;;;;;6.80;1.80;;;7.00;99.90;;;;;;4995474;28;20378;-86
2021/12/19 03:45:44;;;;;;;6.40;1.80;;;6.90;99.90;;;;;;5040106;28;20033;-86
2021/12/19 03:48:12;;;;;;;8.20;1.70;;;6.80;99.90;;;;;;5019809;28;20069;-86
2021/12/19 03:50:44;;;;;;;7.65;1.90;;;7.90;99.90;;;;;;5023592;28;20541;-87
2021/12/19 03:53:14;;;;;;;8.13;1.90;;;7.00;99.90;;;;;;4997596;28;20416;-86
2021/12/19 03:55:41;;;;;;;8.60;2.05;;;7.00;99.90;;;;;;5018229;28;20077;-86
2021/12/19 03:58:07;;;;;;;7.05;1.77;;;7.00;99.90;;;;;;5011792;28;20121;-87
2021/12/19 04:00:33;;;;;;;11.73;2.08;;;7.00;99.90;;;;;;5019869;28;20141;-86
2021/12/19 04:03:04;;;;;;;8.10;2.00;;;8.80;99.90;;;;;;5012975;28;20108;-86
2021/12/19 04:05:33;;;;;;;7.20;2.03;;;7.00;99.90;;;;;;5014125;28;20056;-86
2021/12/19 04:07:59;;;;;;;8.57;2.10;;;7.00;99.90;;;;;;5012038;28;20043;-86
2021/12/19 04:10:27;;;;;;;10.45;2.70;;;7.10;99.90;;;;;;5020279;28;20350;-86
2021/12/19 04:12:55;;;;;;;9.35;2.47;;;7.00;99.90;;;;;;5013527;28;20037;-87
2021/12/19 04:15:21;;;;;;;10.60;2.38;;;7.00;99.90;;;;;;5014915;28;20099;-86
2021/12/19 04:17:48;;;;;;;11.07;3.10;;;7.60;99.90;;;;;;4998549;28;20099;-85
2021/12/19 04:20:29;;;;;;;10.10;2.80;;;7.10;99.90;;;;;;4994952;28;20113;-88
2021/12/19 04:22:55;;;;;;;13.05;3.05;;;7.10;99.90;;;;;;5013643;28;20045;-86
2021/12/19 04:25:21;;;;;;;13.27;3.30;;;7.10;99.90;;;;;;5013802;28;20041;-86
2021/12/19 04:27:48;;;;;;;15.68;3.28;;;;;;;;;;5011977;28;20068;-86
2021/12/19 04:30:21;;;;;;;12.23;3.33;;;7.20;99.90;;;;;;4995216;28;20073;-86
2021/12/19 04:32:57;;;;;;;12.07;3.55;;;7.20;99.90;;;;;;5009765;28;20092;-85
2021/12/19 04:35:24;;;;;;;14.52;3.72;;;7.20;99.90;;;;;;4998313;28;20496;-85
2021/12/19 04:59:48;;;;;;;17.08;4.63;;;7.30;99.90;;;;;;5012815;28;20037;-86
2021/12/19 05:15:28;;;;;;;18.30;6.30;;;7.40;99.90;;;;;;5014597;28;20053;-86
2021/12/19 05:18:04;;;;;;;27.35;7.07;;;7.40;99.90;;;;;;5017222;28;20032;-86
2021/12/19 05:20:35;;;;;;;20.20;6.57;;;;;;;;;;4996718;28;20511;-86
2021/12/19 05:25:51;;;;;;;25.60;7.40;;;7.40;99.90;;;;;;5001269;28;20037;-86
2021/12/19 05:28:17;;;;;;;19.45;7.68;;;7.30;99.90;;;;;;5028783;28;20103;-85
2021/12/19 05:30:43;;;;;;;20.60;6.43;;;8.50;99.90;;;;;;4989048;28;20080;-86
2021/12/19 05:33:08;;;;;;;21.63;7.00;;;7.40;99.90;;;;;;5008801;28;20072;-85
2021/12/19 05:46:22;;;;;;;19.92;6.88;;;7.40;99.90;;;;;;5011156;28;20049;-86
2021/12/19 05:48:48;;;;;;;23.42;7.15;;;8.50;99.90;;;;;;5011640;28;20042;-85
2021/12/19 05:51:14;;;;;;;20.90;6.90;;;7.40;99.90;;;;;;5008608;28;20044;-86
2021/12/19 05:53:40;;;;;;;20.75;6.20;;;7.40;99.90;;;;;;4996372;28;20439;-86
2021/12/19 05:56:12;;;;;;;16.85;6.45;;;8.60;99.90;;;;;;5008093;28;20064;-87
2021/12/19 05:58:38;;;;;;;21.63;6.63;;;6.70;99.90;;;;;;4981222;28;20549;-87
2021/12/19 06:01:07;;;;;;;20.55;6.53;;;7.30;99.90;;;;;;5041162;28;20224;-86
2021/12/19 06:03:33;;;;;;;22.45;7.15;;;7.30;99.90;;;;;;5018372;28;20155;-86
2021/12/19 06:05:59;;;;;;;23.92;7.13;;;9.00;99.90;;;;;;5024785;28;20518;-86
2021/12/19 06:08:24;;;;;;;24.35;6.95;;;7.50;99.90;;;;;;5015656;28;20045;-85
2021/12/19 06:10:50;;;;;;;21.10;6.88;;;9.30;99.90;;;;;;4996371;28;20041;-86
2021/12/19 06:13:28;;;;;;;23.67;6.40;;;7.30;99.90;;;;;;4995912;28;20039;-89
2021/12/19 06:15:57;;;;;;;14.27;5.45;;;7.30;99.90;;;;;;4996584;28;20037;-85
2021/12/19 06:18:33;;;;;;;20.73;5.95;;;7.30;99.90;;;;;;5015457;28;20530;-86
2021/12/19 06:21:04;;;;;;;19.10;6.35;;;7.30;99.90;;;;;;5015328;28;20047;-86
2021/12/19 06:23:33;;;;;;;22.45;5.93;;;7.40;99.90;;;;;;5031448;28;20068;-86
2021/12/19 06:26:03;;;;;;;23.58;5.88;;;;;;;;;;5016791;28;20523;-86
2021/12/19 06:28:30;;;;;;;15.27;5.13;;;7.30;99.90;;;;;;5015674;28;20033;-85
2021/12/19 06:30:56;;;;;;;20.25;5.40;;;7.30;99.90;;;;;;4995799;28;20531;-85
2021/12/19 06:33:22;;;;;;;13.80;4.50;;;;;;;;;;5013896;28;20048;-87
2021/12/19 06:36:02;;;;;;;17.60;5.22;;;7.30;99.90;;;;;;5010243;28;20115;-86
2021/12/19 06:38:31;;;;;;;16.73;4.03;;;7.30;99.90;;;;;;5010733;28;20060;-87
2021/12/19 06:40:56;;;;;;;17.80;4.13;;;7.30;99.90;;;;;;5024353;28;20075;-86
2021/12/19 06:43:22;;;;;;;16.23;3.90;;;7.30;99.90;;;;;;5012383;28;20094;-86
2021/12/19 06:45:48;;;;;;;14.25;4.15;;;9.00;99.90;;;;;;5030716;28;20275;-87
2021/12/19 06:48:14;;;;;;;15.70;4.05;;;7.30;99.90;;;;;;5003831;28;20548;-85
2021/12/19 06:50:40;;;;;;;16.52;4.40;;;7.30;99.90;;;;;;5025690;28;20459;-86
2021/12/19 06:53:08;;;;;;;12.93;3.50;;;7.30;99.90;;;;;;5017916;28;20075;-86
2021/12/19 06:55:34;;;;;;;14.52;3.95;;;7.30;99.90;;;;;;5026194;28;20073;-86
2021/12/19 06:58:00;;;;;;;15.35;3.05;;;8.90;99.90;;;;;;4986493;28;20037;-86
2021/12/19 07:00:26;;;;;;;14.95;3.53;;;7.70;99.90;;;;;;4981413;28;20056;-86
2021/12/19 07:02:57;;;;;;;12.63;2.97;;;7.30;99.90;;;;;;4996789;28;20061;-85
2021/12/19 07:05:23;;;;;;;15.02;3.20;;;7.30;99.90;;;;;;5031037;28;20052;-89
2021/12/19 07:07:55;;;;;;;12.70;3.50;;;8.80;99.90;;;;;;5030048;28;20085;-87
2021/12/19 07:10:26;;;;;;;20.83;3.78;;;7.30;99.90;;;;;;5020051;28;20067;-86
2021/12/19 07:12:55;;;;;;;15.07;3.13;;;7.30;99.90;;;;;;5016453;28;20036;-84
2021/12/19 07:15:24;;;;;;;17.48;3.90;;;7.30;99.90;;;;;;5044068;28;20040;-87
2021/12/19 07:17:51;;;;;;;11.80;3.90;;;7.70;99.90;;;;;;5041927;28;20041;-85
2021/12/19 07:20:25;;;;;;;13.98;3.67;;;;;;;;;;5043305;28;20048;-86
2021/12/19 07:22:50;;;;;;;12.68;3.30;;;7.30;99.90;;;;;;5043408;28;20390;-85
2021/12/19 07:25:16;;;;;;;15.13;3.45;;;7.30;99.90;;;;;;5026120;28;20041;-84
2021/12/19 07:27:42;;;;;;;14.45;3.80;;;7.30;99.90;;;;;;4990975;28;20029;-85
2021/12/19 07:30:08;;;;;;;17.17;3.42;;;7.30;99.90;;;;;;5007704;28;20079;-85
2021/12/19 07:32:36;;;;;;;18.85;3.67;;;7.30;99.90;;;;;;5000583;28;20492;-84
2021/12/19 07:35:02;;;;;;;17.27;3.90;;;7.60;99.90;;;;;;5015027;28;20041;-85
2021/12/19 07:37:27;;;;;;;15.38;3.42;;;7.30;99.90;;;;;;4999208;28;20036;-86
2021/12/19 07:40:09;;;;;;;17.80;3.33;;;7.30;99.90;;;;;;5027576;28;20519;-86
2021/12/19 07:42:38;;;;;;;17.10;3.83;;;7.30;99.90;;;;;;4998897;28;20143;-85
2021/12/19 07:45:13;;;;;;;18.65;3.58;;;8.00;99.90;;;;;;5014692;28;20522;-85
2021/12/19 07:47:39;;;;;;;18.15;3.38;;;7.30;99.90;;;;;;5023041;28;20040;-85
2021/12/19 07:50:10;;;;;;;12.77;3.15;;;7.30;99.90;;;;;;5031323;28;20086;-85
2021/12/19 07:52:37;;;;;;;17.88;3.58;;;7.40;99.90;;;;;;5027968;28;20039;-84
2021/12/19 07:55:04;;;;;;;17.65;3.55;;;7.40;99.90;;;;;;5020758;28;20069;-85
2021/12/19 07:57:30;;;;;;;16.80;3.83;;;7.40;99.90;;;;;;5012683;28;20040;-87
2021/12/19 07:59:56;;;;;;;13.13;3.20;;;7.40;99.90;;;;;;4996707;28;20037;-86
2021/12/19 08:02:21;;;;;;;17.20;3.55;;;7.40;99.90;;;;;;4994115;28;20534;-85
2021/12/19 08:04:47;;;;;;;12.00;3.00;;;7.40;99.90;;;;;;4992084;28;20464;-86
2021/12/19 08:07:15;;;;;;;22.25;4.00;;;7.40;99.90;;;;;;5001291;28;20058;-86
2021/12/19 08:09:58;;;;;;;16.13;3.13;;;8.20;99.90;;;;;;5027592;28;20064;-85
2021/12/19 08:12:25;;;;;;;15.27;3.53;;;7.70;99.90;;;;;;5007763;28;20069;-86
2021/12/19 08:14:50;;;;;;;16.83;3.65;;;7.40;99.90;;;;;;4995400;28;20044;-85
2021/12/19 08:17:17;;;;;;;19.80;3.72;;;7.40;99.90;;;;;;5010605;28;20030;-83
2021/12/19 08:19:43;;;;;;;15.02;3.78;;;7.80;99.90;;;;;;4990672;28;20595;-85
2021/12/19 08:22:09;;;;;;;16.95;4.03;;;8.20;99.90;;;;;;4994335;28;20063;-85
2021/12/19 08:24:36;;;;;;;14.77;4.20;;;7.30;99.90;;;;;;5004919;28;20556;-85
2021/12/19 08:27:02;;;;;;;18.30;3.35;;;8.10;99.90;;;;;;5025350;28;20344;-86
2021/12/19 08:29:28;;;;;;;16.98;3.97;;;7.40;99.90;;;;;;4995008;28;20112;-85
2021/12/19 08:31:54;;;;;;;14.20;3.17;;;7.40;99.90;;;;;;4990602;28;20120;-83
2021/12/19 08:34:20;;;;;;;14.23;3.30;;;7.40;99.90;;;;;;5006046;28;20049;-84
2021/12/19 08:36:45;;;;;;;14.10;3.40;;;7.40;99.90;;;;;;4999942;28;20037;-85
2021/12/19 08:39:13;;;;;;;16.73;3.05;;;8.30;99.90;;;;;;4999991;28;20042;-86
2021/12/19 08:41:39;;;;;;;17.08;4.03;;;7.50;99.90;;;;;;4985997;28;20038;-86
2021/12/19 08:44:05;;;;;;;15.20;3.35;;;7.50;99.90;;;;;;4997799;28;20164;-87
2021/12/19 08:46:35;;;;;;;13.73;3.00;;;7.50;99.90;;;;;;5030904;28;20050;-86
2021/12/19 08:49:04;;;;;;;12.88;3.08;;;7.50;99.90;;;;;;5013835;28;20081;-87
2021/12/19 08:51:39;;;;;;;11.30;2.78;;;8.40;99.90;;;;;;5020052;28;20033;-87
2021/12/19 08:54:08;;;;;;;14.45;3.45;;;7.50;99.90;;;;;;5003118;28;20096;-86
2021/12/19 08:56:35;;;;;;;10.38;2.88;;;7.50;99.90;;;;;;5002380;28;20033;-86
2021/12/19 08:59:01;;;;;;;12.38;3.00;;;7.50;99.90;;;;;;5003132;28;20044;-85
2021/12/19 09:01:27;;;;;;;16.80;3.20;;;7.50;99.90;;;;;;5021389;28;20451;-86
2021/12/19 09:03:53;;;;;;;16.83;3.55;;;7.50;99.90;;;;;;4997918;28;20041;-86
2021/12/19 09:06:19;;;;;;;16.08;3.00;;;8.20;99.90;;;;;;4995805;28;20049;-85
2021/12/19 09:08:45;;;;;;;18.23;3.40;;;7.50;99.90;;;;;;4995868;28;20573;-86
2021/12/19 09:11:11;;;;;;;13.48;3.33;;;7.50;99.90;;;;;;5003021;28;20446;-85
2021/12/19 09:13:37;;;;;;;17.67;3.88;;;7.50;99.90;;;;;;4993460;28;20029;-86
2021/12/19 09:16:03;;;;;;;16.88;3.13;;;7.60;99.90;;;;;;5011457;28;20400;-86
2021/12/19 09:18:30;;;;;;;17.75;3.35;;;7.60;99.90;;;;;;5004586;28;20034;-85
2021/12/19 09:20:56;;;;;;;15.80;3.67;;;7.60;99.90;;;;;;5018667;28;20092;-86
2021/12/19 09:23:27;;;;;;;17.67;3.67;;;7.60;99.90;;;;;;4991928;28;20528;-87
2021/12/19 09:25:53;;;;;;;16.73;3.85;;;7.60;99.90;;;;;;5010749;28;20041;-87
2021/12/19 09:28:18;;;;;;;19.70;4.20;;;7.70;99.90;;;;;;4996360;28;20106;-86
2021/12/19 09:30:45;;;;;;;17.73;4.40;;;7.70;99.90;;;;;;4995948;28;20573;-86
2021/12/19 09:33:11;;;;;;;16.67;4.15;;;7.70;99.90;;;;;;5015613;28;20104;-85
2021/12/19 09:35:37;;;;;;;21.80;4.10;;;7.70;99.90;;;;;;5007169;28;20045;-86
2021/12/19 09:38:04;;;;;;;15.45;3.70;;;7.70;99.90;;;;;;5030413;28;20044;-85
2021/12/19 09:40:37;;;;;;;16.75;3.92;;;7.70;99.90;;;;;;4981111;28;20056;-85
2021/12/19 09:43:05;;;;;;;;;;;7.80;99.90;;;;;;5006920;28;20049;-86
2021/12/19 09:45:33;;;;;;;12.68;3.05;;;7.70;99.90;;;;;;5010090;28;20019;-87
2021/12/19 09:47:59;;;;;;;11.73;2.80;;;7.80;99.90;;;;;;5014087;28;20080;-85
2021/12/19 09:50:28;;;;;;;16.77;3.05;;;8.60;99.90;;;;;;5010635;28;20420;-86
2021/12/19 09:52:54;;;;;;;13.63;2.80;;;7.80;99.90;;;;;;4989551;28;20126;-88
2021/12/19 09:55:21;;;;;;;10.25;2.38;;;8.30;99.90;;;;;;5003078;28;20523;-86
2021/12/19 09:57:53;;;;;;;15.55;3.03;;;7.80;99.90;;;;;;5006620;28;20069;-85
2021/12/19 10:00:19;;;;;;;12.32;2.72;;;7.90;99.90;;;;;;5024976;28;20049;-85
2021/12/19 10:02:45;;;;;;;13.82;2.60;;;7.80;99.90;;;;;;5025392;28;20053;-85
2021/12/19 10:05:26;;;;;;;16.60;3.28;;;7.80;99.90;;;;;;5026580;28;20403;-86
2021/12/19 10:08:00;;;;;;;13.65;2.80;;;7.80;99.90;;;;;;5007034;28;20038;-85
2021/12/19 10:10:54;;;;;;;18.08;4.05;;;7.80;99.90;;;;;;5026172;28;20049;-86
2021/12/19 10:13:35;;;;;;;13.73;2.75;;;7.70;99.90;;;;;;5012548;28;20404;-86
2021/12/19 10:16:01;;;;;;;17.65;2.75;;;7.80;99.90;;;;;;4997537;28;20042;-85
2021/12/19 10:18:32;;;;;;;14.48;3.08;;;7.80;99.90;;;;;;5040604;28;20045;-86
2021/12/19 10:21:03;;;;;;;13.85;3.35;;;7.80;99.90;;;;;;5012618;28;20049;-85
2021/12/19 10:23:34;;;;;;;13.00;2.70;;;7.80;99.90;;;;;;5009678;28;20077;-86
2021/12/19 10:26:08;;;;;;;12.60;2.67;;;6.90;99.90;;;;;;5003175;28;20041;-86
2021/12/19 10:28:55;;;;;;;13.93;2.88;;;7.80;99.90;;;;;;5011831;28;20415;-89
2021/12/19 10:31:21;;;;;;;14.88;3.70;;;7.90;99.90;;;;;;5007886;28;20045;-87
2021/12/19 10:33:56;;;;;;;13.88;3.72;;;7.90;99.90;;;;;;4999123;28;20044;-88
2021/12/19 10:36:22;;;;;;;16.35;3.13;;;7.90;99.90;;;;;;5025412;28;20182;-86
2021/12/19 10:38:51;;;;;;;11.90;2.65;;;9.90;99.90;;;;;;4995892;28;20216;-86
2021/12/19 10:41:23;;;;;;;16.75;3.00;;;7.90;99.90;;;;;;4994293;28;20041;-87
2021/12/19 10:44:02;;;;;;;16.13;2.90;;;7.90;99.90;;;;;;4994911;28;20037;-86
2021/12/19 10:46:30;;;;;;;15.05;2.50;;;7.90;99.90;;;;;;5026813;28;20112;-87
2021/12/19 10:48:57;;;;;;;14.43;2.70;;;7.90;99.90;;;;;;4999160;28;20129;-86
2021/12/19 10:51:24;;;;;;;13.90;2.85;;;8.00;99.90;;;;;;5008461;28;20040;-85
2021/12/19 10:53:53;;;;;;;13.30;3.00;;;8.00;99.90;;;;;;5009758;28;20041;-87
2021/12/19 10:56:23;;;;;;;16.30;2.97;;;8.00;99.90;;;;;;4994801;28;20042;-86
2021/12/19 10:58:58;;;;;;;15.43;3.00;;;8.00;99.90;;;;;;5018867;28;20029;-86
2021/12/19 11:01:36;;;;;;;16.90;3.47;;;8.20;99.90;;;;;;5011114;28;20072;-87
2021/12/19 11:04:08;;;;;;;13.63;3.10;;;8.10;99.90;;;;;;5028020;28;20057;-87
2021/12/19 11:06:46;;;;;;;12.98;3.17;;;8.10;99.90;;;;;;5019501;28;20034;-87
2021/12/19 11:09:16;;;;;;;17.58;3.15;;;8.10;99.90;;;;;;4994701;28;20064;-86
2021/12/19 11:11:46;;;;;;;13.35;3.33;;;8.10;99.90;;;;;;5011774;28;20099;-87
2021/12/19 11:14:19;;;;;;;20.23;4.10;;;8.20;99.90;;;;;;4998872;28;20045;-86
2021/12/19 11:16:46;;;;;;;20.13;3.38;;;8.20;99.90;;;;;;5004531;28;20479;-86
2021/12/19 11:19:12;;;;;;;17.80;3.35;;;8.50;99.90;;;;;;5021184;28;20033;-86
2021/12/19 11:21:39;;;;;;;12.65;3.13;;;8.20;99.90;;;;;;5018445;28;20475;-87
2021/12/19 11:24:11;;;;;;;18.15;3.00;;;8.20;99.90;;;;;;5008884;28;20070;-86
2021/12/19 11:26:39;;;;;;;15.98;2.83;;;8.20;99.90;;;;;;5020839;28;20051;-87
2021/12/19 11:29:06;;;;;;;17.55;3.33;;;;;;;;;;5034020;28;20095;-86
2021/12/19 11:31:33;;;;;;;15.32;3.50;;;8.20;99.90;;;;;;5022464;28;20073;-87
2021/12/19 11:34:11;;;;;;;18.73;3.83;;;8.20;99.90;;;;;;5014313;28;20034;-87
2021/12/19 11:36:42;;;;;;;16.67;3.17;;;8.20;99.90;;;;;;5010106;28;20643;-87
2021/12/19 11:39:19;;;;;;;19.50;3.40;;;8.20;99.90;;;;;;4381515;28;10000968;-86
2021/12/19 11:42:29;;;;;;;16.73;3.80;;;8.20;99.90;;;;;;5005494;28;20337;-87
2021/12/19 11:47:56;;;;;;;18.25;3.10;;;8.20;99.90;;;;;;5019539;28;20052;-86
2021/12/19 11:50:31;;;;;;;18.13;3.30;;;8.20;99.90;;;;;;5007207;28;20048;-87
2021/12/19 11:53:09;;;;;;;22.98;4.00;;;8.20;99.90;;;;;;5002853;28;20045;-85
2021/12/19 11:56:10;;;;;;;16.77;3.63;;;8.30;99.90;;;;;;4990964;28;20041;-86
2021/12/19 11:58:46;;;;;;;19.77;3.10;;;8.30;99.90;;;;;;4920206;28;20060;-86
2021/12/19 12:01:13;;;;;;;17.33;3.00;;;8.30;99.90;;;;;;4998811;28;20041;-87
2021/12/19 12:03:47;;;;;;;20.95;3.50;;;8.30;99.90;;;;;;5012707;28;20044;-86
2021/12/19 12:06:25;;;;;;;18.45;3.97;;;8.40;99.90;;;;;;5009955;28;20047;-86
2021/12/19 12:09:25;;;;;;;19.65;4.00;;;8.40;99.90;;;;;;5017506;28;20116;-87
2021/12/19 12:12:00;;;;;;;20.02;3.63;;;8.30;99.90;;;;;;4998416;28;20519;-86
2021/12/19 12:14:30;;;;;;;17.25;3.42;;;8.40;99.90;;;;;;5044650;28;20415;-87
2021/12/19 12:16:59;;;;;;;18.17;3.45;;;8.40;99.90;;;;;;5024136;28;20199;-86
2021/12/19 12:19:51;;;;;;;20.05;4.45;;;8.50;99.90;;;;;;5016206;28;20117;-85
2021/12/19 12:22:30;;;;;;;16.17;3.40;;;8.50;99.90;;;;;;5021970;28;20136;-86
2021/12/19 12:25:14;;;;;;;17.10;3.72;;;8.50;99.90;;;;;;5010658;28;20119;-88
2021/12/19 12:28:08;;;;;;;20.15;3.65;;;8.10;99.90;;;;;;5035217;28;20037;-85
2021/12/19 12:30:52;;;;;;;19.60;3.40;;;8.50;99.90;;;;;;5017147;28;20033;-88
2021/12/19 12:33:26;;;;;;;19.55;3.13;;;8.50;99.90;;;;;;5015691;28;20111;-86
2021/12/19 12:35:54;;;;;;;25.98;4.05;;;8.40;99.90;;;;;;5032191;28;20029;-85
2021/12/19 12:38:20;;;;;;;17.08;3.13;;;8.40;99.90;;;;;;5047828;28;20091;-86
2021/12/19 12:40:58;;;;;;;14.45;2.83;;;;;;;;;;5015394;28;20041;-86
2021/12/19 12:43:29;;;;;;;19.35;3.45;;;8.40;99.90;;;;;;5022471;28;20041;-87
2021/12/19 12:46:03;;;;;;;19.20;3.58;;;9.70;99.90;;;;;;5022140;28;20544;-86
2021/12/19 12:49:06;;;;;;;15.50;3.30;;;8.30;99.90;;;;;;5034463;28;20106;-86
2021/12/19 12:51:49;;;;;;;20.42;3.10;;;8.40;99.90;;;;;;5052503;28;20128;-87
2021/12/19 12:54:22;;;;;;;15.52;3.40;;;7.20;99.90;;;;;;5018474;28;20473;-87
2021/12/19 12:56:50;;;;;;;14.68;2.78;;;8.90;99.90;;;;;;5017980;28;20044;-86
2021/12/19 12:59:23;;;;;;;15.45;3.30;;;8.30;99.90;;;;;;5033108;28;20048;-87
2021/12/19 13:01:52;;;;;;;16.23;3.00;;;8.30;99.90;;;;;;5017444;28;20117;-86
2021/12/19 13:04:32;;;;;;;12.95;3.17;;;8.40;99.90;;;;;;5034130;28;20041;-89
2021/12/19 13:07:37;;;;;;;16.52;2.80;;;8.40;99.90;;;;;;5033662;28;20551;-87
2021/12/19 13:10:28;;;;;;;14.65;3.08;;;8.40;99.90;;;;;;4973304;28;20520;-90
2021/12/19 13:13:26;;;;;;;14.65;2.88;;;8.40;99.90;;;;;;5018248;28;20129;-87
2021/12/19 13:15:52;;;;;;;18.30;2.72;;;;;;;;;;5016825;28;20120;-84
2021/12/19 13:18:40;;;;;;;13.65;2.80;;;;;;;;;;5034063;28;20052;-86
2021/12/19 13:21:07;;;;;;;17.98;3.70;;;8.40;99.90;;;;;;5037802;28;20553;-86
2021/12/19 13:23:42;;;;;;;13.63;2.65;;;8.40;99.90;;;;;;5051550;28;20059;-86
2021/12/19 13:26:08;;;;;;;15.75;3.70;;;8.40;99.90;;;;;;4998226;28;20059;-86
2021/12/19 13:28:34;;;;;;;20.63;4.25;;;8.40;99.90;;;;;;5032000;28;20037;-87
2021/12/19 13:31:00;;;;;;;15.60;3.03;;;8.40;99.90;;;;;;5032754;28;20124;-86
2021/12/19 13:33:30;;;;;;;14.48;3.40;;;8.40;99.90;;;;;;4997864;28;20041;-89
2021/12/19 13:36:01;;;;;;;17.02;3.40;;;8.40;99.90;;;;;;5025300;28;20580;-85
2021/12/19 13:38:28;;;;;;;15.65;2.63;;;8.40;99.90;;;;;;5009399;28;20041;-86
2021/12/19 13:40:57;;;;;;;19.52;3.22;;;10.20;99.90;;;;;;5030331;28;20076;-86
2021/12/19 13:43:30;;;;;;;20.95;3.63;;;8.40;99.90;;;;;;5030603;28;20041;-86
2021/12/19 13:45:59;;;;;;;12.50;2.75;;;8.40;99.90;;;;;;5024122;28;20068;-86
2021/12/19 13:48:29;;;;;;;16.73;3.40;;;8.40;99.90;;;;;;5009518;28;20111;-85
2021/12/19 13:51:04;;;;;;;19.58;3.17;;;8.50;99.90;;;;;;5011412;28;20376;-87
2021/12/19 13:53:32;;;;;;;16.92;3.33;;;8.50;99.90;;;;;;5020627;28;20483;-86
2021/12/19 13:56:08;;;;;;;17.23;3.20;;;8.50;99.90;;;;;;5013245;28;20037;-86
2021/12/19 13:58:40;;;;;;;13.45;3.10;;;9.50;99.90;;;;;;5012850;28;20079;-86
2021/12/19 14:01:15;;;;;;;14.25;2.75;;;8.40;99.90;;;;;;5026697;28;20334;-87
2021/12/19 14:03:59;;;;;;;18.17;4.07;;;7.10;99.90;;;;;;5032001;28;20527;-87
2021/12/19 14:06:35;;;;;;;10.85;2.88;;;8.50;99.90;;;;;;5013214;28;20055;-87
2021/12/19 14:09:21;;;;;;;15.18;2.70;;;8.50;99.90;;;;;;5015898;28;20525;-86
2021/12/19 14:11:56;;;;;;;14.15;2.63;;;8.50;99.90;;;;;;5035090;28;20032;-78
2021/12/19 14:14:29;;;;;;;14.20;2.85;;;8.50;99.90;;;;;;5015173;28;20071;-78
2021/12/19 14:17:13;;;;;;;13.02;2.40;;;8.40;99.90;;;;;;5028467;28;20042;-83
2021/12/19 14:20:06;;;;;;;14.32;2.80;;;8.40;99.90;;;;;;5011362;28;20103;-84
2021/12/19 14:22:32;;;;;;;15.00;2.47;;;8.40;99.90;;;;;;5012651;28;20048;-85
2021/12/19 14:24:59;;;;;;;19.50;3.08;;;8.90;99.90;;;;;;5005986;28;20041;-84
2021/12/19 14:27:27;;;;;;;15.15;3.40;;;8.30;99.90;;;;;;4997734;28;20098;-84